createdAt,value
2018-01-22T00:02:57.434Z,42.57
2018-01-22T00:05:59.378Z,42.67
2018-01-22T00:09:01.312Z,42.69
2018-01-22T00:12:03.227Z,42.85
2018-01-22T00:15:05.164Z,42.78
2018-01-22T00:18:07.109Z,42.69
2018-01-22T00:21:09.035Z,42.59
2018-01-22T00:24:10.968Z,42.75
2018-01-22T00:27:12.882Z,42.73
2018-01-22T00:30:14.827Z,42.76
2018-01-22T00:33:16.742Z,42.79
2018-01-22T00:36:18.683Z,42.78
2018-01-22T00:39:20.606Z,42.73
2018-01-22T00:42:22.567Z,42.72
2018-01-22T00:45:24.509Z,42.78
2018-01-22T00:48:26.410Z,42.75
2018-01-22T00:51:28.311Z,42.70
2018-01-22T00:54:30.187Z,42.75
2018-01-22T00:57:32.139Z,42.61
2018-01-22T01:00:34.084Z,42.53
2018-01-22T01:03:36.027Z,42.74
2018-01-22T01:06:37.996Z,42.69
2018-01-22T01:09:39.823Z,42.75
2018-01-22T01:12:41.739Z,42.64
2018-01-22T01:15:43.704Z,42.74
2018-01-22T01:18:45.843Z,42.74
2018-01-22T01:21:47.782Z,42.74
2018-01-22T01:24:49.707Z,42.71
2018-01-22T01:27:51.644Z,42.82
2018-01-22T01:30:53.559Z,42.74
2018-01-22T01:33:55.482Z,42.73
2018-01-22T01:36:57.435Z,42.66
2018-01-22T01:39:59.346Z,42.62
2018-01-22T01:46:22.262Z,42.62
2018-01-22T01:49:24.216Z,42.66
2018-01-22T01:52:26.145Z,42.63
2018-01-22T01:55:28.058Z,42.66
2018-01-22T01:58:30.009Z,42.62
2018-01-22T02:01:31.956Z,42.77
2018-01-22T02:04:33.864Z,42.78
2018-01-22T02:07:35.785Z,42.71
2018-01-22T02:10:37.726Z,42.77
2018-01-22T02:13:39.887Z,42.86
2018-01-22T02:16:41.875Z,42.87
2018-01-22T02:19:43.811Z,42.67
2018-01-22T02:22:51.783Z,42.98
2018-01-22T02:29:17.184Z,42.67
2018-01-22T02:32:19.062Z,42.66
2018-01-22T02:35:20.957Z,42.71
2018-01-22T02:38:22.841Z,42.57
2018-01-22T02:41:24.767Z,42.69
2018-01-22T02:44:26.688Z,42.82
2018-01-22T02:47:28.607Z,42.83
2018-01-22T02:50:30.534Z,42.88
2018-01-22T02:53:32.579Z,42.75
2018-01-22T02:56:34.475Z,42.79
2018-01-22T02:59:36.367Z,42.79
2018-01-22T03:02:38.263Z,42.81
2018-01-22T03:05:40.166Z,42.91
2018-01-22T03:08:42.115Z,42.77
2018-01-22T03:11:44.026Z,42.91
2018-01-22T03:14:45.919Z,42.94
2018-01-22T03:17:47.827Z,42.85
2018-01-22T03:20:49.723Z,43.16
2018-01-22T03:23:51.689Z,42.93
2018-01-22T03:26:53.671Z,42.71
2018-01-22T03:29:55.638Z,42.71
2018-01-22T03:32:57.535Z,42.87
2018-01-22T03:35:59.432Z,42.98
2018-01-22T03:39:01.338Z,42.91
2018-01-22T03:42:03.231Z,42.80
2018-01-22T03:45:05.126Z,42.75
2018-01-22T03:48:07.260Z,43.08
2018-01-22T03:51:09.142Z,42.92
2018-01-22T03:54:11.031Z,43.08
2018-01-22T03:57:12.910Z,42.61
2018-01-22T04:00:14.911Z,42.86
2018-01-22T04:03:16.948Z,43.01
2018-01-22T04:06:18.906Z,43.24
2018-01-22T04:09:20.786Z,42.93
2018-01-22T04:12:22.691Z,43.01
2018-01-22T04:15:24.591Z,42.97
2018-01-22T04:18:26.487Z,42.73
2018-01-22T04:21:28.399Z,42.82
2018-01-22T04:24:30.323Z,42.96
2018-01-22T04:27:32.211Z,42.77
2018-01-22T04:30:34.123Z,42.96
2018-01-22T04:33:36.011Z,42.95
2018-01-22T04:36:37.924Z,42.92
2018-01-22T04:39:39.815Z,43.01
2018-01-22T04:42:41.711Z,43.05
2018-01-22T04:45:43.594Z,42.92
2018-01-22T04:48:45.538Z,42.99
2018-01-22T04:51:47.438Z,42.91
2018-01-22T04:54:49.323Z,42.91
2018-01-22T04:57:51.235Z,42.88
2018-01-22T05:00:53.131Z,42.76
2018-01-22T05:03:55.035Z,42.95
2018-01-22T05:06:57.008Z,42.90
2018-01-22T05:09:58.890Z,42.87
2018-01-22T05:13:00.815Z,43.10
2018-01-22T05:16:02.795Z,42.98
2018-01-22T05:19:04.708Z,42.85
2018-01-22T05:22:06.603Z,42.93
2018-01-22T05:25:08.499Z,43.00
2018-01-22T05:28:10.404Z,43.04
2018-01-22T05:31:12.304Z,42.76
2018-01-22T05:34:14.287Z,42.75
2018-01-22T05:37:16.214Z,42.86
2018-01-22T05:40:18.091Z,42.70
2018-01-22T05:43:19.984Z,42.67
2018-01-22T05:46:21.926Z,42.57
2018-01-22T05:49:23.819Z,42.48
2018-01-22T05:52:25.690Z,42.60
2018-01-22T05:55:27.568Z,42.50
2018-01-22T05:58:29.494Z,42.59
2018-01-22T06:01:31.399Z,42.52
2018-01-22T06:04:33.287Z,42.61
2018-01-22T06:07:35.196Z,42.61
2018-01-22T06:10:37.195Z,42.54
2018-01-22T06:13:39.078Z,42.59
2018-01-22T06:16:40.967Z,42.43
2018-01-22T06:19:42.940Z,42.59
2018-01-22T06:22:44.870Z,42.52
2018-01-22T06:25:46.787Z,42.54
2018-01-22T06:28:48.678Z,42.46
2018-01-22T06:31:50.569Z,42.44
2018-01-22T06:34:52.511Z,42.51
2018-01-22T06:37:54.383Z,42.44
2018-01-22T06:40:56.262Z,42.46
2018-01-22T06:43:58.142Z,42.48
2018-01-22T06:47:00.032Z,42.61
2018-01-22T06:50:01.912Z,42.48
2018-01-22T06:53:04.823Z,42.41
2018-01-22T06:56:06.698Z,42.40
2018-01-22T06:59:08.576Z,42.50
2018-01-22T07:02:10.461Z,42.40
2018-01-22T07:05:12.346Z,42.46
2018-01-22T07:08:14.234Z,42.49
2018-01-22T07:11:16.106Z,42.33
2018-01-22T07:14:17.986Z,42.46
2018-01-22T07:17:19.883Z,42.33
2018-01-22T07:20:21.759Z,42.30
2018-01-22T07:23:23.649Z,42.40
2018-01-22T07:26:25.539Z,42.33
2018-01-22T07:29:27.429Z,42.36
2018-01-22T07:32:29.307Z,42.38
2018-01-22T07:35:31.209Z,42.36
2018-01-22T07:38:33.082Z,42.41
2018-01-22T07:41:34.953Z,42.30
2018-01-22T07:44:36.993Z,42.42
2018-01-22T07:47:38.866Z,42.32
2018-01-22T07:50:40.788Z,42.42
2018-01-22T07:53:42.647Z,42.29
2018-01-22T07:56:44.537Z,42.32
2018-01-22T07:59:46.418Z,42.36
2018-01-22T08:02:48.306Z,42.39
2018-01-22T08:05:50.192Z,42.26
2018-01-22T08:08:52.079Z,42.40
2018-01-22T08:11:53.968Z,42.29
2018-01-22T08:14:55.844Z,42.32
2018-01-22T08:17:57.755Z,42.38
2018-01-22T08:20:59.643Z,42.34
2018-01-22T08:24:01.527Z,42.39
2018-01-22T08:27:03.599Z,42.47
2018-01-22T08:30:05.475Z,42.42
2018-01-22T08:33:07.354Z,42.45
2018-01-22T08:36:09.240Z,42.39
2018-01-22T08:39:11.120Z,42.40
2018-01-22T08:42:12.994Z,42.41
2018-01-22T08:45:14.887Z,42.50
2018-01-22T08:48:17.218Z,42.76
2018-01-22T08:51:19.218Z,42.70
2018-01-22T08:54:21.091Z,42.63
2018-01-22T08:57:22.975Z,42.66
2018-01-22T09:00:24.857Z,42.53
2018-01-22T09:03:26.735Z,42.59
2018-01-22T09:06:28.619Z,41.42
2018-01-22T09:09:30.512Z,42.33
2018-01-22T09:12:32.395Z,42.01
2018-01-22T09:15:34.270Z,41.92
2018-01-22T09:18:36.148Z,42.05
2018-01-22T09:21:38.035Z,42.27
2018-01-22T09:24:39.915Z,42.29
2018-01-22T09:27:41.807Z,42.32
2018-01-22T09:30:43.673Z,42.36
2018-01-22T09:33:45.561Z,42.47
2018-01-22T09:36:47.655Z,42.33
2018-01-22T09:39:49.518Z,42.70
2018-01-22T09:42:51.391Z,42.46
2018-01-22T09:45:53.275Z,42.44
2018-01-22T09:48:55.174Z,42.63
2018-01-22T09:51:57.062Z,42.51
2018-01-22T09:54:58.989Z,42.74
2018-01-22T09:58:00.859Z,42.80
2018-01-22T10:01:02.751Z,42.75
2018-01-22T10:04:04.642Z,42.84
2018-01-22T10:07:06.523Z,42.80
2018-01-22T10:10:08.404Z,42.85
2018-01-22T10:13:10.294Z,42.85
2018-01-22T10:16:12.157Z,42.81
2018-01-22T10:19:14.043Z,42.82
2018-01-22T10:22:15.939Z,42.94
2018-01-22T10:25:17.802Z,42.86
2018-01-22T10:28:19.720Z,42.89
2018-01-22T10:31:21.601Z,42.92
2018-01-22T10:34:23.494Z,42.90
2018-01-22T10:37:25.876Z,42.93
2018-01-22T10:40:27.754Z,42.90
2018-01-22T10:43:29.636Z,42.97
2018-01-22T10:46:31.526Z,42.92
2018-01-22T10:49:33.407Z,42.96
2018-01-22T10:52:35.292Z,43.00
2018-01-22T10:55:37.166Z,42.86
2018-01-22T10:58:39.053Z,42.99
2018-01-22T11:01:40.919Z,42.97
2018-01-22T11:04:42.796Z,42.99
2018-01-22T11:07:44.664Z,43.01
2018-01-22T11:10:46.542Z,43.03
2018-01-22T11:13:48.427Z,43.01
2018-01-22T11:16:50.311Z,42.96
2018-01-22T11:19:52.195Z,43.05
2018-01-22T11:22:54.071Z,42.96
2018-01-22T11:25:55.948Z,43.04
2018-01-22T11:28:57.843Z,42.98
2018-01-22T11:31:59.740Z,43.12
2018-01-22T11:35:01.619Z,43.09
2018-01-22T11:38:03.494Z,43.13
2018-01-22T11:41:05.378Z,43.10
2018-01-22T11:44:07.252Z,42.81
2018-01-22T11:47:09.123Z,43.00
2018-01-22T11:50:11.023Z,43.17
2018-01-22T11:53:12.902Z,42.97
2018-01-22T11:56:14.783Z,43.13
2018-01-22T11:59:16.671Z,43.10
2018-01-22T12:02:18.544Z,43.09
2018-01-22T12:05:20.415Z,43.20
2018-01-22T12:08:22.303Z,43.04
2018-01-22T12:11:24.183Z,43.21
2018-01-22T12:14:26.063Z,43.09
2018-01-22T12:17:27.951Z,43.23
2018-01-22T12:20:30.130Z,43.14
2018-01-22T12:23:32.299Z,43.39
2018-01-22T12:26:34.173Z,43.38
2018-01-22T12:29:36.047Z,43.38
2018-01-22T12:32:37.946Z,43.55
2018-01-22T12:35:39.823Z,43.39
2018-01-22T12:38:41.699Z,43.36
2018-01-22T12:41:43.630Z,43.51
2018-01-22T12:44:45.521Z,43.48
2018-01-22T12:47:47.402Z,43.59
2018-01-22T12:50:50.376Z,43.42
2018-01-22T12:53:52.247Z,43.45
2018-01-22T12:56:54.133Z,43.50
2018-01-22T12:59:55.998Z,43.56
2018-01-22T13:02:57.891Z,43.54
2018-01-22T13:05:59.777Z,43.53
2018-01-22T13:09:01.657Z,43.54
2018-01-22T13:12:03.535Z,43.69
2018-01-22T13:15:05.478Z,43.59
2018-01-22T13:18:07.357Z,43.71
2018-01-22T13:21:09.252Z,43.62
2018-01-22T13:24:11.168Z,43.64
2018-01-22T13:27:13.042Z,43.63
2018-01-22T13:30:15.171Z,43.60
2018-01-22T13:33:17.279Z,43.73
2018-01-22T13:36:20.243Z,43.70
2018-01-22T13:39:22.120Z,43.67
2018-01-22T13:42:23.990Z,43.74
2018-01-22T13:45:25.871Z,43.79
2018-01-22T13:48:27.751Z,43.73
2018-01-22T13:51:29.631Z,43.85
2018-01-22T13:54:31.598Z,43.72
2018-01-22T13:57:33.468Z,43.82
2018-01-22T14:00:35.762Z,43.94
2018-01-22T14:03:37.585Z,43.82
2018-01-22T14:06:39.475Z,43.89
2018-01-22T14:09:41.358Z,43.94
2018-01-22T14:12:43.262Z,44.01
2018-01-22T14:15:45.215Z,43.89
2018-01-22T14:18:47.095Z,43.92
2018-01-22T14:21:48.988Z,43.91
2018-01-22T14:24:50.857Z,43.93
2018-01-22T14:27:52.743Z,43.88
2018-01-22T14:30:54.623Z,43.89
2018-01-22T14:33:56.511Z,43.97
2018-01-22T14:36:58.405Z,43.77
2018-01-22T14:40:00.276Z,43.77
2018-01-22T14:43:02.148Z,43.87
2018-01-22T14:46:04.026Z,43.79
2018-01-22T14:49:05.914Z,43.92
2018-01-22T14:52:07.812Z,43.90
2018-01-22T14:55:09.687Z,43.92
2018-01-22T14:58:11.572Z,43.94
2018-01-22T15:01:13.454Z,43.82
2018-01-22T15:04:15.330Z,43.90
2018-01-22T15:07:17.220Z,43.82
2018-01-22T15:10:19.086Z,43.90
2018-01-22T15:13:20.963Z,43.60
2018-01-22T15:16:22.856Z,43.66
2018-01-22T15:19:24.738Z,43.85
2018-01-22T15:22:26.642Z,44.03
2018-01-22T15:25:28.523Z,43.84
2018-01-22T15:28:30.438Z,43.82
2018-01-22T15:31:32.302Z,43.85
2018-01-22T15:34:34.194Z,43.88
2018-01-22T15:37:36.066Z,43.77
2018-01-22T15:40:37.955Z,43.71
2018-01-22T15:43:39.838Z,43.61
2018-01-22T15:46:41.719Z,44.16
2018-01-22T15:49:43.647Z,43.83
2018-01-22T15:52:45.535Z,43.92
2018-01-22T15:55:47.539Z,43.90
2018-01-22T15:58:50.291Z,43.97
2018-01-22T16:01:52.265Z,44.05
2018-01-22T16:04:54.143Z,44.09
2018-01-22T16:07:56.013Z,43.99
2018-01-22T16:10:57.903Z,43.93
2018-01-22T16:13:59.792Z,43.94
2018-01-22T16:17:01.675Z,43.93
2018-01-22T16:20:03.547Z,43.83
2018-01-22T16:23:05.423Z,43.84
2018-01-22T16:26:07.319Z,43.91
2018-01-22T16:29:09.196Z,44.06
2018-01-22T16:32:11.075Z,44.26
2018-01-22T16:35:12.964Z,43.99
2018-01-22T16:38:14.839Z,43.96
2018-01-22T16:41:16.723Z,43.95
2018-01-22T16:44:18.599Z,43.67
2018-01-22T16:47:24.934Z,43.71
2018-01-22T16:50:26.806Z,43.75
2018-01-22T16:53:28.695Z,43.64
2018-01-22T16:56:30.767Z,43.79
2018-01-22T16:59:32.771Z,43.70
2018-01-22T17:02:34.654Z,43.76
2018-01-22T17:05:36.527Z,43.83
2018-01-22T17:08:38.430Z,43.69
2018-01-22T17:11:40.323Z,43.71
2018-01-22T17:14:42.200Z,43.45
2018-01-22T17:17:44.079Z,43.48
2018-01-22T17:20:45.987Z,43.27
2018-01-22T17:23:47.873Z,43.23
2018-01-22T17:26:49.764Z,43.31
2018-01-22T17:29:51.637Z,43.38
2018-01-22T17:32:53.527Z,43.32
2018-01-22T17:35:55.407Z,43.19
2018-01-22T17:38:57.286Z,43.54
2018-01-22T17:41:59.159Z,43.56
2018-01-22T17:45:01.043Z,43.85
2018-01-22T17:48:02.934Z,43.84
2018-01-22T17:51:04.802Z,44.05
2018-01-22T17:54:06.682Z,43.53
2018-01-22T17:57:08.575Z,43.75
2018-01-22T18:00:10.446Z,43.73
2018-01-22T18:03:12.340Z,43.51
2018-01-22T18:06:14.206Z,43.71
2018-01-22T18:09:16.083Z,43.25
2018-01-22T18:12:17.979Z,43.27
2018-01-22T18:15:19.867Z,43.31
2018-01-22T18:18:21.739Z,43.37
2018-01-22T18:21:23.688Z,43.43
2018-01-22T18:24:25.583Z,43.60
2018-01-22T18:27:27.458Z,43.16
2018-01-22T18:30:29.347Z,43.22
2018-01-22T18:33:31.338Z,43.25
2018-01-22T18:36:33.208Z,43.18
2018-01-22T18:39:35.096Z,43.35
2018-01-22T18:42:36.984Z,43.28
2018-01-22T18:45:39.102Z,43.17
2018-01-22T18:48:41.024Z,43.31
2018-01-22T18:51:43.850Z,43.23
2018-01-22T18:54:45.835Z,43.10
2018-01-22T18:57:47.823Z,43.44
2018-01-22T19:00:49.735Z,43.45
2018-01-22T19:03:51.735Z,43.36
2018-01-22T19:06:53.927Z,43.36
2018-01-22T19:09:55.847Z,43.33
2018-01-22T19:12:57.864Z,43.25
2018-01-22T19:15:59.744Z,43.34
2018-01-22T19:19:01.734Z,43.31
2018-01-22T19:22:03.730Z,43.36
2018-01-22T19:25:05.652Z,43.38
2018-01-22T19:28:07.616Z,43.31
2018-01-22T19:31:09.527Z,43.48
2018-01-22T19:34:11.431Z,43.53
2018-01-22T19:37:13.364Z,43.58
2018-01-22T19:40:16.391Z,43.51
2018-01-22T19:43:18.355Z,43.41
2018-01-22T19:46:20.279Z,43.38
2018-01-22T19:49:22.171Z,43.38
2018-01-22T20:01:51.172Z,42.98
2018-01-22T20:04:53.139Z,43.19
2018-01-22T20:07:55.073Z,43.52
2018-01-22T20:10:57.059Z,43.54
2018-01-22T20:13:58.954Z,43.79
2018-01-22T20:17:00.952Z,43.47
2018-01-22T20:20:02.861Z,43.67
2018-01-22T20:23:05.091Z,43.75
2018-01-22T20:26:06.967Z,43.68
2018-01-22T20:29:08.839Z,43.77
2018-01-22T20:32:10.710Z,44.03
2018-01-22T20:35:12.592Z,43.98
2018-01-22T20:38:14.478Z,44.11
2018-01-22T20:41:16.359Z,44.06
2018-01-22T20:44:18.234Z,44.32
2018-01-22T20:47:20.102Z,44.31
2018-01-22T20:50:21.987Z,44.30
2018-01-22T20:53:23.880Z,44.36
2018-01-22T20:56:25.824Z,44.20
2018-01-22T20:59:27.739Z,44.18
2018-01-22T21:02:29.614Z,44.14
2018-01-22T21:05:31.519Z,44.20
2018-01-22T21:08:33.398Z,44.25
2018-01-22T21:11:35.314Z,44.19
2018-01-22T21:14:37.206Z,44.15
2018-01-22T21:17:39.089Z,44.14
2018-01-22T21:20:40.979Z,44.13
2018-01-22T21:23:42.856Z,44.13
2018-01-22T21:26:44.743Z,44.14
2018-01-22T21:29:46.683Z,43.56
2018-01-22T21:32:48.574Z,44.11
2018-01-22T21:35:50.477Z,44.36
2018-01-22T21:38:52.379Z,44.33
2018-01-22T21:41:54.309Z,44.43
2018-01-22T21:44:56.294Z,44.56
2018-01-22T21:47:58.186Z,44.29
2018-01-22T21:51:00.110Z,44.40
2018-01-22T21:54:01.988Z,44.42
2018-01-22T21:57:04.275Z,44.48
2018-01-22T22:00:06.171Z,44.34
2018-01-22T22:03:08.050Z,44.48
2018-01-22T22:06:09.927Z,44.40
2018-01-22T22:09:12.322Z,44.45
2018-01-22T22:12:14.180Z,44.43
2018-01-22T22:15:16.060Z,44.46
2018-01-22T22:18:17.934Z,44.34
2018-01-22T22:21:19.818Z,44.46
2018-01-22T22:24:21.703Z,44.40
2018-01-22T22:27:24.722Z,44.42
2018-01-22T22:30:26.676Z,44.53
2018-01-22T22:33:28.715Z,44.40
2018-01-22T22:36:30.696Z,44.50
2018-01-22T22:39:32.645Z,44.54
2018-01-22T22:42:34.498Z,44.37
2018-01-22T22:45:36.379Z,44.42
2018-01-22T22:48:38.248Z,44.33
2018-01-22T22:51:40.123Z,44.45
2018-01-22T22:54:41.994Z,44.40
2018-01-22T22:57:43.878Z,44.39
2018-01-22T23:00:45.759Z,44.37
2018-01-22T23:03:47.656Z,44.38
2018-01-22T23:06:49.541Z,44.43
2018-01-22T23:09:51.412Z,44.35
2018-01-22T23:12:53.286Z,44.34
2018-01-22T23:15:55.159Z,44.37
2018-01-22T23:18:57.055Z,44.25
2018-01-22T23:21:58.929Z,44.35
2018-01-22T23:25:00.799Z,44.39
2018-01-22T23:28:02.666Z,44.37
2018-01-22T23:31:04.543Z,44.42
2018-01-22T23:34:06.415Z,44.47
2018-01-22T23:37:08.287Z,44.38
2018-01-22T23:40:10.150Z,44.41
2018-01-22T23:43:12.040Z,44.40
2018-01-22T23:46:13.926Z,44.62
2018-01-22T23:49:15.795Z,44.35
2018-01-22T23:52:17.680Z,44.42
2018-01-22T23:55:19.848Z,44.58
2018-01-22T23:58:21.719Z,44.51
